createdAt,value
2017-03-03T00:00:02.270Z,0
2017-03-03T00:00:42.758Z,0
2017-03-03T00:01:23.219Z,0
2017-03-03T00:02:03.714Z,0
2017-03-03T00:02:44.220Z,0
2017-03-03T00:03:24.695Z,0
2017-03-03T00:04:05.164Z,0
2017-03-03T00:04:45.657Z,0
2017-03-03T00:05:26.111Z,0
2017-03-03T00:06:06.668Z,0
2017-03-03T00:06:47.191Z,0
2017-03-03T00:07:27.673Z,0
2017-03-03T00:08:08.200Z,0
2017-03-03T00:08:48.670Z,0
2017-03-03T00:09:29.121Z,0
2017-03-03T00:10:09.610Z,0
2017-03-03T00:10:50.115Z,0
2017-03-03T00:11:30.573Z,0
2017-03-03T00:12:11.105Z,0
2017-03-03T00:12:51.593Z,0
2017-03-03T00:13:32.088Z,0
2017-03-03T00:14:12.612Z,0
2017-03-03T00:14:53.102Z,0
2017-03-03T00:15:33.606Z,0
2017-03-03T00:16:14.082Z,0
2017-03-03T00:16:54.589Z,0
2017-03-03T00:17:35.066Z,0
2017-03-03T00:18:15.553Z,0
2017-03-03T00:18:56.031Z,0
2017-03-03T00:19:36.520Z,0
2017-03-03T00:20:16.976Z,0
2017-03-03T00:20:57.472Z,0
2017-03-03T00:21:37.966Z,0
2017-03-03T00:22:18.440Z,0
2017-03-03T00:22:58.984Z,0
2017-03-03T00:23:39.623Z,0
2017-03-03T00:24:20.110Z,0
2017-03-03T00:25:00.617Z,0
2017-03-03T00:25:41.093Z,0
2017-03-03T00:26:21.556Z,0
2017-03-03T00:27:02.041Z,0
2017-03-03T00:27:42.516Z,0
2017-03-03T00:28:22.980Z,0
2017-03-03T00:29:03.473Z,0
2017-03-03T00:29:43.943Z,0
2017-03-03T00:30:24.427Z,0
2017-03-03T00:31:04.885Z,0
2017-03-03T00:31:45.351Z,0
2017-03-03T00:32:25.861Z,0
2017-03-03T00:33:06.315Z,0
2017-03-03T00:33:46.821Z,0
2017-03-03T00:34:27.317Z,0
2017-03-03T00:35:07.801Z,0
2017-03-03T00:35:48.233Z,0
2017-03-03T00:36:28.702Z,0
2017-03-03T00:37:09.226Z,0
2017-03-03T00:37:49.767Z,0
2017-03-03T00:38:30.237Z,0
2017-03-03T00:39:10.712Z,0
2017-03-03T00:39:51.234Z,0
2017-03-03T00:40:31.734Z,0
2017-03-03T00:41:12.210Z,0
2017-03-03T00:41:52.734Z,0
2017-03-03T00:42:33.199Z,0
2017-03-03T00:43:13.723Z,0
2017-03-03T00:43:54.222Z,0
2017-03-03T00:44:34.703Z,0
2017-03-03T00:45:15.182Z,0
2017-03-03T00:45:55.706Z,0
2017-03-03T00:46:36.198Z,0
2017-03-03T00:47:16.750Z,0
2017-03-03T00:47:57.209Z,0
2017-03-03T00:48:37.671Z,0
2017-03-03T00:49:18.191Z,0
2017-03-03T00:49:58.670Z,0
2017-03-03T00:50:39.139Z,0
2017-03-03T00:51:19.633Z,0
2017-03-03T00:52:00.116Z,0
2017-03-03T00:52:40.625Z,0
2017-03-03T00:53:21.114Z,0
2017-03-03T00:54:01.676Z,0
2017-03-03T00:54:42.145Z,0
2017-03-03T00:55:22.565Z,0
2017-03-03T00:56:03.030Z,0
2017-03-03T00:56:43.569Z,0
2017-03-03T00:57:24.064Z,0
2017-03-03T00:58:04.541Z,0
2017-03-03T00:58:45.006Z,0
2017-03-03T00:59:25.486Z,0
2017-03-03T01:00:05.996Z,0
2017-03-03T01:00:46.475Z,0
2017-03-03T01:01:26.954Z,0
2017-03-03T01:02:07.432Z,0
2017-03-03T01:02:47.886Z,0
2017-03-03T01:03:28.377Z,0
2017-03-03T01:04:08.863Z,0
2017-03-03T01:04:49.329Z,0
2017-03-03T01:05:29.840Z,0
2017-03-03T01:06:10.343Z,0
2017-03-03T01:06:50.792Z,0
2017-03-03T01:07:31.290Z,0
2017-03-03T01:08:11.739Z,0
2017-03-03T01:08:52.241Z,0
2017-03-03T01:09:32.737Z,0
2017-03-03T01:10:13.224Z,0
2017-03-03T01:10:53.702Z,0
2017-03-03T01:11:34.215Z,0
2017-03-03T01:12:14.700Z,0
2017-03-03T01:12:55.151Z,0
2017-03-03T01:13:35.673Z,0
2017-03-03T01:14:16.147Z,0
2017-03-03T01:14:56.652Z,0
2017-03-03T01:15:37.126Z,0
2017-03-03T01:16:17.571Z,0
2017-03-03T01:16:58.074Z,0
2017-03-03T01:17:38.560Z,0
2017-03-03T01:18:19.032Z,0
2017-03-03T01:18:59.540Z,0
2017-03-03T01:19:39.995Z,0
2017-03-03T01:20:20.464Z,0
2017-03-03T01:21:00.939Z,0
2017-03-03T01:21:41.452Z,0
2017-03-03T01:22:21.923Z,0
2017-03-03T01:23:02.427Z,0
2017-03-03T01:23:42.940Z,0
2017-03-03T01:24:23.484Z,0
2017-03-03T01:25:03.912Z,0
2017-03-03T01:25:44.428Z,0
2017-03-03T01:26:24.904Z,0
2017-03-03T01:27:05.362Z,0
2017-03-03T01:27:45.827Z,0
2017-03-03T01:28:26.302Z,0
2017-03-03T01:29:06.803Z,0
2017-03-03T01:29:47.260Z,0
2017-03-03T01:30:27.780Z,0
2017-03-03T01:31:08.226Z,0
2017-03-03T01:31:48.744Z,0
2017-03-03T01:32:29.230Z,0
2017-03-03T01:33:09.726Z,0
2017-03-03T01:33:50.184Z,0
2017-03-03T01:34:30.667Z,0
2017-03-03T01:35:11.164Z,0
2017-03-03T01:35:51.685Z,0
2017-03-03T01:36:32.174Z,0
2017-03-03T01:37:12.742Z,0
2017-03-03T01:37:53.225Z,0
2017-03-03T01:38:33.720Z,0
2017-03-03T01:39:14.218Z,0
2017-03-03T01:39:54.688Z,0
2017-03-03T01:40:35.173Z,0
2017-03-03T01:41:15.664Z,0
2017-03-03T01:41:56.150Z,0
2017-03-03T01:42:36.641Z,0
2017-03-03T01:43:17.130Z,0
2017-03-03T01:43:57.583Z,0
2017-03-03T01:44:38.056Z,0
2017-03-03T01:45:18.557Z,0
2017-03-03T01:45:59.039Z,0
2017-03-03T01:46:39.541Z,0
2017-03-03T01:47:20.047Z,0
2017-03-03T01:48:00.535Z,0
2017-03-03T01:48:40.989Z,0
2017-03-03T01:49:23.318Z,0
2017-03-03T01:50:03.782Z,0
2017-03-03T01:50:44.240Z,0
2017-03-03T01:51:24.719Z,0
2017-03-03T01:52:05.238Z,0
2017-03-03T01:52:45.675Z,0
2017-03-03T01:53:26.178Z,0
2017-03-03T01:54:06.671Z,0
2017-03-03T01:54:47.168Z,0
2017-03-03T01:55:27.626Z,0
2017-03-03T01:56:08.139Z,0
2017-03-03T01:56:48.628Z,0
2017-03-03T01:57:29.110Z,0
2017-03-03T01:58:09.589Z,0
2017-03-03T01:58:50.076Z,0
2017-03-03T01:59:30.548Z,0
2017-03-03T02:00:11.026Z,0
2017-03-03T02:00:51.519Z,0
2017-03-03T02:01:32.002Z,0
2017-03-03T02:02:12.527Z,0
2017-03-03T02:02:53.012Z,0
2017-03-03T02:03:33.461Z,0
2017-03-03T02:04:13.945Z,0
2017-03-03T02:04:54.463Z,0
2017-03-03T02:05:34.922Z,0
2017-03-03T02:06:15.438Z,0
2017-03-03T02:06:55.926Z,0
2017-03-03T02:07:36.398Z,0
2017-03-03T02:08:16.875Z,0
2017-03-03T02:08:57.362Z,0
2017-03-03T02:09:37.859Z,0
2017-03-03T02:10:18.350Z,0
2017-03-03T02:10:58.826Z,0
2017-03-03T02:11:39.322Z,0
2017-03-03T02:12:19.844Z,0
2017-03-03T02:13:00.340Z,0
2017-03-03T02:13:40.780Z,0
2017-03-03T02:14:21.280Z,0
2017-03-03T02:15:01.798Z,0
2017-03-03T02:15:42.245Z,0
2017-03-03T02:16:22.749Z,0
2017-03-03T02:17:03.207Z,0
2017-03-03T02:17:43.724Z,0
2017-03-03T02:18:25.900Z,0
2017-03-03T02:19:06.369Z,0
2017-03-03T02:19:46.849Z,0
2017-03-03T02:20:27.312Z,0
2017-03-03T02:21:07.817Z,0
2017-03-03T02:21:48.279Z,0
2017-03-03T02:22:28.817Z,0
2017-03-03T02:23:09.259Z,0
2017-03-03T02:23:49.941Z,0
2017-03-03T02:24:30.418Z,0
2017-03-03T02:25:10.925Z,0
2017-03-03T02:25:51.398Z,0
2017-03-03T02:26:31.847Z,0
2017-03-03T02:27:12.377Z,0
2017-03-03T02:27:52.913Z,0
2017-03-03T02:28:33.356Z,0
2017-03-03T02:29:13.851Z,0
2017-03-03T02:29:54.351Z,0
2017-03-03T02:30:34.817Z,0
2017-03-03T02:31:15.286Z,0
2017-03-03T02:31:55.780Z,0
2017-03-03T02:32:36.266Z,0
2017-03-03T02:33:16.735Z,0
2017-03-03T02:33:57.225Z,0
2017-03-03T02:34:37.735Z,0
2017-03-03T02:35:18.246Z,0
2017-03-03T02:35:58.729Z,0
2017-03-03T02:36:39.212Z,0
2017-03-03T02:37:19.779Z,0
2017-03-03T02:38:00.224Z,0
2017-03-03T02:38:40.732Z,0
2017-03-03T02:39:21.240Z,0
2017-03-03T02:40:01.778Z,0
2017-03-03T02:40:42.241Z,0
2017-03-03T02:41:22.745Z,0
2017-03-03T02:42:03.221Z,0
2017-03-03T02:42:43.717Z,0
2017-03-03T02:43:24.155Z,0
2017-03-03T02:44:04.672Z,0
2017-03-03T02:44:45.166Z,0
2017-03-03T02:45:25.654Z,0
2017-03-03T02:46:06.148Z,0
2017-03-03T02:46:46.598Z,0
2017-03-03T02:47:27.075Z,0
2017-03-03T02:48:07.551Z,0
2017-03-03T02:48:48.024Z,0
2017-03-03T02:49:28.540Z,0
2017-03-03T02:50:09.024Z,0
2017-03-03T02:50:49.498Z,0
2017-03-03T02:51:29.963Z,0
2017-03-03T02:52:10.442Z,0
2017-03-03T02:52:50.944Z,0
2017-03-03T02:53:31.422Z,0
2017-03-03T02:54:11.938Z,0
2017-03-03T02:54:52.376Z,0
2017-03-03T02:55:32.908Z,0
2017-03-03T02:56:13.509Z,0
2017-03-03T02:56:54.030Z,0
2017-03-03T02:57:34.505Z,0
2017-03-03T02:58:14.975Z,0
2017-03-03T02:58:55.482Z,0
2017-03-03T02:59:35.957Z,0
2017-03-03T03:00:16.433Z,0
2017-03-03T03:00:56.911Z,0
2017-03-03T03:01:37.406Z,0
2017-03-03T03:02:17.901Z,0
2017-03-03T03:02:58.392Z,0
2017-03-03T03:03:38.931Z,0
2017-03-03T03:04:19.399Z,0
2017-03-03T03:04:59.885Z,0
2017-03-03T03:05:40.384Z,0
2017-03-03T03:06:20.855Z,0
2017-03-03T03:07:03.140Z,0
2017-03-03T03:07:43.639Z,0
2017-03-03T03:08:24.144Z,0
2017-03-03T03:09:06.388Z,0
2017-03-03T03:09:46.875Z,0
2017-03-03T03:10:27.404Z,0
2017-03-03T03:11:07.866Z,0
2017-03-03T03:11:48.401Z,0
2017-03-03T03:12:28.884Z,0
2017-03-03T03:13:09.369Z,0
2017-03-03T03:13:49.877Z,0
2017-03-03T03:14:30.358Z,0
2017-03-03T03:15:10.875Z,0
2017-03-03T03:15:51.350Z,0
2017-03-03T03:16:31.848Z,0
2017-03-03T03:17:12.329Z,0
2017-03-03T03:17:52.840Z,0
2017-03-03T03:18:33.286Z,0
2017-03-03T03:19:13.759Z,0
2017-03-03T03:19:54.248Z,0
2017-03-03T03:20:34.710Z,0
2017-03-03T03:21:15.194Z,0
2017-03-03T03:21:55.654Z,0
2017-03-03T03:22:36.172Z,0
2017-03-03T03:23:16.625Z,0
2017-03-03T03:23:57.135Z,0
2017-03-03T03:24:37.639Z,0
2017-03-03T03:25:18.093Z,0
2017-03-03T03:25:58.584Z,0
2017-03-03T03:26:39.063Z,0
2017-03-03T03:27:19.532Z,0
2017-03-03T03:28:00.059Z,0
2017-03-03T03:28:40.503Z,0
2017-03-03T03:29:20.983Z,0
2017-03-03T03:30:01.483Z,0
2017-03-03T03:30:41.961Z,0
2017-03-03T03:31:22.432Z,0
2017-03-03T03:32:03.035Z,0
2017-03-03T03:32:43.540Z,0
2017-03-03T03:33:24.030Z,0
2017-03-03T03:34:04.525Z,0
2017-03-03T03:34:45.000Z,0
2017-03-03T03:35:25.521Z,0
2017-03-03T03:36:05.979Z,0
2017-03-03T03:36:47.309Z,0
2017-03-03T03:37:27.792Z,0
2017-03-03T03:38:08.256Z,0
2017-03-03T03:38:48.748Z,0
2017-03-03T03:39:29.267Z,0
2017-03-03T03:40:09.719Z,0
2017-03-03T03:40:50.231Z,0
2017-03-03T03:41:30.700Z,0
2017-03-03T03:42:11.141Z,0
2017-03-03T03:42:51.687Z,0
2017-03-03T03:43:32.186Z,0
2017-03-03T03:44:12.705Z,0
2017-03-03T03:44:53.219Z,0
2017-03-03T03:45:33.668Z,0
2017-03-03T03:46:14.183Z,0
2017-03-03T03:46:54.652Z,0
2017-03-03T03:47:35.151Z,0
2017-03-03T03:48:15.582Z,0
2017-03-03T03:48:56.060Z,0
2017-03-03T03:49:36.567Z,0
2017-03-03T03:50:17.024Z,0
2017-03-03T03:50:57.555Z,0
2017-03-03T03:51:38.038Z,0
2017-03-03T03:52:18.515Z,0
2017-03-03T03:52:59.011Z,0
2017-03-03T03:53:39.571Z,0
2017-03-03T03:54:20.086Z,0
2017-03-03T03:55:00.564Z,0
2017-03-03T03:55:41.036Z,0
2017-03-03T03:56:21.540Z,0
2017-03-03T03:57:02.016Z,0
2017-03-03T03:57:42.491Z,0
2017-03-03T03:58:22.977Z,0
2017-03-03T03:59:03.461Z,0
2017-03-03T03:59:44.008Z,0
2017-03-03T04:00:24.462Z,0
2017-03-03T04:01:04.949Z,0
2017-03-03T04:01:45.447Z,0
2017-03-03T04:02:25.906Z,0
2017-03-03T04:03:06.421Z,0
2017-03-03T04:03:46.896Z,0
2017-03-03T04:04:27.412Z,0
2017-03-03T04:05:07.891Z,0
2017-03-03T04:05:48.392Z,0
2017-03-03T04:06:28.866Z,0
2017-03-03T04:07:09.871Z,0
2017-03-03T04:07:50.408Z,0
2017-03-03T04:08:30.851Z,0
2017-03-03T04:09:11.338Z,0
2017-03-03T04:09:51.786Z,0
2017-03-03T04:10:32.286Z,0
2017-03-03T04:11:12.756Z,0
2017-03-03T04:11:53.201Z,0
2017-03-03T04:12:33.706Z,0
2017-03-03T04:13:14.191Z,0
2017-03-03T04:13:54.704Z,0
2017-03-03T04:14:35.218Z,0
2017-03-03T04:15:15.679Z,0
2017-03-03T04:15:56.242Z,0
2017-03-03T04:16:36.704Z,0
2017-03-03T04:17:17.205Z,0
2017-03-03T04:17:57.702Z,0
2017-03-03T04:18:38.193Z,0
2017-03-03T04:19:18.670Z,0
2017-03-03T04:19:59.160Z,0
2017-03-03T04:20:39.643Z,0
2017-03-03T04:21:20.147Z,0
2017-03-03T04:22:00.624Z,0
2017-03-03T04:22:41.138Z,0
2017-03-03T04:23:21.631Z,0
2017-03-03T04:24:02.102Z,0
2017-03-03T04:24:42.581Z,0
2017-03-03T04:25:23.072Z,0
2017-03-03T04:26:03.583Z,0
2017-03-03T04:26:44.083Z,0
2017-03-03T04:27:24.530Z,0
2017-03-03T04:28:05.018Z,0
2017-03-03T04:28:45.497Z,0
2017-03-03T04:29:25.977Z,0
2017-03-03T04:30:06.473Z,0
2017-03-03T04:30:46.961Z,0
2017-03-03T04:31:27.462Z,0
2017-03-03T04:32:07.967Z,0
2017-03-03T04:32:48.431Z,0
2017-03-03T04:33:28.913Z,0
2017-03-03T04:34:09.389Z,0
2017-03-03T04:34:49.855Z,0
2017-03-03T04:35:30.328Z,0
2017-03-03T04:36:10.810Z,0
2017-03-03T04:36:51.330Z,0
2017-03-03T04:37:31.814Z,0
2017-03-03T04:38:12.324Z,0
2017-03-03T04:38:52.807Z,0
2017-03-03T04:39:33.334Z,0
2017-03-03T04:40:13.795Z,0
2017-03-03T04:40:54.348Z,0
2017-03-03T04:41:34.933Z,0
2017-03-03T04:42:15.411Z,0
2017-03-03T04:42:55.904Z,0
2017-03-03T04:43:36.350Z,0
2017-03-03T04:44:16.894Z,0
2017-03-03T04:44:57.348Z,0
2017-03-03T04:45:37.805Z,0
2017-03-03T04:46:18.289Z,0
2017-03-03T04:46:58.769Z,0
2017-03-03T04:47:39.242Z,0
2017-03-03T04:48:19.741Z,0
2017-03-03T04:49:00.242Z,0
2017-03-03T04:49:40.742Z,0
2017-03-03T04:50:21.229Z,0
2017-03-03T04:51:01.700Z,0
2017-03-03T04:51:42.191Z,0
2017-03-03T04:52:22.645Z,0
2017-03-03T04:53:03.145Z,0
2017-03-03T04:53:43.636Z,0
2017-03-03T04:54:24.098Z,0
2017-03-03T04:55:04.579Z,0
2017-03-03T04:55:45.096Z,0
2017-03-03T04:56:25.558Z,0
2017-03-03T04:57:06.023Z,0
2017-03-03T04:57:46.531Z,0
2017-03-03T04:58:26.979Z,0
2017-03-03T04:59:07.516Z,0
2017-03-03T04:59:47.989Z,0
2017-03-03T05:00:28.512Z,0
2017-03-03T05:01:09.001Z,0
2017-03-03T05:01:49.523Z,0
2017-03-03T05:02:29.943Z,0
2017-03-03T05:03:10.425Z,0
2017-03-03T05:03:50.889Z,0
2017-03-03T05:04:31.365Z,0
2017-03-03T05:05:11.826Z,0
2017-03-03T05:05:52.342Z,0
2017-03-03T05:06:32.909Z,0
2017-03-03T05:07:13.349Z,0
2017-03-03T05:07:53.866Z,0
2017-03-03T05:08:34.309Z,0
2017-03-03T05:09:14.811Z,0
2017-03-03T05:09:55.287Z,0
2017-03-03T05:10:35.740Z,0
2017-03-03T05:11:16.213Z,0
2017-03-03T05:11:56.744Z,0
2017-03-03T05:12:37.225Z,0
2017-03-03T05:13:17.696Z,0
2017-03-03T05:13:58.172Z,0
2017-03-03T05:14:38.693Z,0
2017-03-03T05:15:19.174Z,0
2017-03-03T05:15:59.680Z,0
2017-03-03T05:16:40.157Z,0
2017-03-03T05:17:20.621Z,0
2017-03-03T05:18:01.112Z,0
2017-03-03T05:18:41.568Z,0
2017-03-03T05:19:22.117Z,0
2017-03-03T05:20:02.560Z,0
2017-03-03T05:20:43.114Z,0
2017-03-03T05:21:23.578Z,0
2017-03-03T05:22:04.039Z,0
2017-03-03T05:22:44.572Z,0
2017-03-03T05:23:25.117Z,0
2017-03-03T05:24:05.643Z,0
2017-03-03T05:24:46.128Z,0
2017-03-03T05:25:26.636Z,0
2017-03-03T05:26:07.138Z,0
2017-03-03T05:26:47.672Z,0
2017-03-03T05:27:28.161Z,0
2017-03-03T05:28:08.653Z,0
2017-03-03T05:28:49.149Z,0
2017-03-03T05:29:29.669Z,0
2017-03-03T05:30:10.140Z,0
2017-03-03T05:30:50.666Z,0
2017-03-03T05:31:31.186Z,0
2017-03-03T05:32:13.303Z,0
2017-03-03T05:32:53.774Z,0
2017-03-03T05:33:34.284Z,0
2017-03-03T05:34:14.814Z,0
2017-03-03T05:34:55.322Z,0
2017-03-03T05:35:35.866Z,0
2017-03-03T05:36:16.333Z,0
2017-03-03T05:36:56.875Z,0
2017-03-03T05:37:37.384Z,4
2017-03-03T05:38:17.875Z,4
2017-03-03T05:38:58.381Z,4
2017-03-03T05:39:38.896Z,4
2017-03-03T05:40:19.391Z,0
2017-03-03T05:40:59.893Z,4
2017-03-03T05:41:40.429Z,4
2017-03-03T05:42:20.895Z,4
2017-03-03T05:43:01.393Z,8
2017-03-03T05:43:41.887Z,4
2017-03-03T05:44:22.457Z,4
2017-03-03T05:45:02.952Z,8
2017-03-03T05:45:43.510Z,8
2017-03-03T05:46:23.973Z,8
2017-03-03T05:47:04.485Z,8
2017-03-03T05:47:45.040Z,12
2017-03-03T05:48:25.528Z,12
2017-03-03T05:49:06.049Z,12
2017-03-03T05:49:46.559Z,16
2017-03-03T05:50:27.115Z,16
2017-03-03T05:51:07.603Z,20
2017-03-03T05:51:48.138Z,20
2017-03-03T05:52:28.643Z,24
2017-03-03T05:53:09.140Z,28
2017-03-03T05:53:49.637Z,28
2017-03-03T05:54:30.148Z,36
2017-03-03T05:55:10.679Z,36
2017-03-03T05:55:51.156Z,44
2017-03-03T05:56:31.659Z,48
2017-03-03T05:57:12.208Z,52
2017-03-03T05:57:52.697Z,56
2017-03-03T05:58:33.226Z,60
2017-03-03T05:59:13.734Z,68
2017-03-03T05:59:54.264Z,76
2017-03-03T06:00:34.784Z,80
2017-03-03T06:01:15.308Z,88
2017-03-03T06:01:55.805Z,96
2017-03-03T06:02:36.315Z,104
2017-03-03T06:03:16.767Z,112
2017-03-03T06:03:57.280Z,120
2017-03-03T06:04:37.805Z,128
2017-03-03T06:05:18.316Z,140
2017-03-03T06:05:58.818Z,148
2017-03-03T06:06:39.339Z,160
2017-03-03T06:07:19.827Z,168
2017-03-03T06:08:00.368Z,180
2017-03-03T06:08:40.924Z,192
2017-03-03T06:09:21.523Z,200
2017-03-03T06:10:02.024Z,216
2017-03-03T06:10:43.007Z,228
2017-03-03T06:11:23.572Z,240
2017-03-03T06:12:04.096Z,256
2017-03-03T06:12:44.619Z,268
2017-03-03T06:13:25.062Z,284
2017-03-03T06:14:05.565Z,292
2017-03-03T06:14:47.564Z,312
2017-03-03T06:15:27.575Z,316
2017-03-03T06:16:08.092Z,336
2017-03-03T06:16:48.649Z,352
2017-03-03T06:17:29.211Z,368
2017-03-03T06:18:09.832Z,384
2017-03-03T06:18:50.298Z,400
2017-03-03T06:19:30.894Z,420
2017-03-03T06:20:11.447Z,440
2017-03-03T06:20:51.891Z,456
2017-03-03T06:21:32.481Z,476
2017-03-03T06:22:13.031Z,496
2017-03-03T06:22:53.506Z,516
2017-03-03T06:23:34.033Z,540
2017-03-03T06:24:14.495Z,560
2017-03-03T06:24:55.040Z,584
2017-03-03T06:25:43.700Z,612
2017-03-03T06:26:35.315Z,640
2017-03-03T06:27:26.029Z,676
2017-03-03T06:28:16.658Z,712
2017-03-03T06:28:56.619Z,740
2017-03-03T06:29:37.133Z,772
2017-03-03T06:30:17.677Z,796
2017-03-03T06:30:58.176Z,824
2017-03-03T06:31:38.708Z,856
2017-03-03T06:32:19.213Z,884
2017-03-03T06:32:59.657Z,916
2017-03-03T06:33:40.174Z,948
2017-03-03T06:34:20.693Z,980
2017-03-03T06:35:01.165Z,1008
2017-03-03T06:35:41.665Z,1036
2017-03-03T06:36:22.188Z,1060
2017-03-03T06:37:02.656Z,1084
2017-03-03T06:37:43.201Z,1104
2017-03-03T06:38:23.723Z,1124
2017-03-03T06:39:04.236Z,1144
2017-03-03T06:39:44.722Z,1168
2017-03-03T06:40:25.219Z,1196
2017-03-03T06:41:05.704Z,1224
2017-03-03T06:41:46.221Z,1260
2017-03-03T06:42:26.750Z,1292
2017-03-03T06:43:07.237Z,1328
2017-03-03T06:43:47.766Z,1352
2017-03-03T06:44:28.243Z,1380
2017-03-03T06:45:08.757Z,1396
2017-03-03T06:45:49.215Z,1412
2017-03-03T06:46:29.716Z,1420
2017-03-03T06:47:10.218Z,1436
2017-03-03T06:47:50.716Z,1448
2017-03-03T06:48:31.205Z,1460
2017-03-03T06:49:11.709Z,1480
2017-03-03T06:49:52.228Z,1496
2017-03-03T06:50:32.759Z,1520
2017-03-03T06:51:13.175Z,1552
2017-03-03T06:51:53.735Z,1592
2017-03-03T06:52:34.201Z,1644
2017-03-03T06:53:14.717Z,1716
2017-03-03T06:53:55.236Z,1792
2017-03-03T06:54:35.706Z,1880
2017-03-03T06:55:16.255Z,1940
2017-03-03T06:55:56.766Z,1928
2017-03-03T06:56:37.291Z,1928
2017-03-03T06:57:17.793Z,1976
2017-03-03T06:57:58.338Z,2064
2017-03-03T06:58:38.824Z,2136
2017-03-03T06:59:19.281Z,2216
2017-03-03T06:59:59.798Z,2256
2017-03-03T07:00:40.328Z,2304
2017-03-03T07:01:20.819Z,2332
2017-03-03T07:02:01.308Z,2364
2017-03-03T07:02:41.801Z,2360
2017-03-03T07:03:23.863Z,2332
2017-03-03T07:04:04.385Z,2296
2017-03-03T07:04:44.863Z,2264
2017-03-03T07:05:25.376Z,2212
2017-03-03T07:06:05.899Z,2188
2017-03-03T07:06:46.434Z,2204
2017-03-03T07:07:26.955Z,2216
2017-03-03T07:08:07.469Z,2156
2017-03-03T07:08:47.964Z,2072
2017-03-03T07:09:28.495Z,2040
2017-03-03T07:10:08.971Z,1980
2017-03-03T07:10:49.504Z,1900
2017-03-03T07:11:30.007Z,1916
2017-03-03T07:12:10.573Z,1968
2017-03-03T07:12:51.141Z,2060
2017-03-03T07:13:31.628Z,2096
2017-03-03T07:14:12.131Z,2124
2017-03-03T07:14:52.972Z,2120
2017-03-03T07:15:33.504Z,2176
2017-03-03T07:16:14.081Z,2364
2017-03-03T07:16:54.593Z,2424
2017-03-03T07:17:35.138Z,2544
2017-03-03T07:18:15.687Z,2564
2017-03-03T07:18:56.128Z,2576
2017-03-03T07:19:36.644Z,2716
2017-03-03T07:20:17.137Z,2684
2017-03-03T07:20:57.663Z,2596
2017-03-03T07:21:38.198Z,2584
2017-03-03T07:22:18.679Z,2524
2017-03-03T07:22:59.377Z,2416
2017-03-03T07:23:40.008Z,2352
2017-03-03T07:24:20.487Z,2328
2017-03-03T07:25:00.990Z,2332
2017-03-03T07:25:41.501Z,2332
2017-03-03T07:26:22.020Z,2340
2017-03-03T07:27:03.133Z,2316
2017-03-03T07:27:43.617Z,2344
2017-03-03T07:28:25.052Z,2360
2017-03-03T07:29:05.523Z,2368
2017-03-03T07:29:46.047Z,2400
2017-03-03T07:30:28.388Z,2424
2017-03-03T07:31:08.914Z,2436
2017-03-03T07:31:49.425Z,2456
2017-03-03T07:32:30.146Z,2488
2017-03-03T07:33:10.655Z,2524
2017-03-03T07:33:51.192Z,2524
2017-03-03T07:34:31.923Z,2532
2017-03-03T07:35:12.236Z,2552
2017-03-03T07:35:59.229Z,2576
2017-03-03T07:36:40.403Z,2584
2017-03-03T07:37:20.944Z,2564
2017-03-03T07:38:01.440Z,2628
2017-03-03T07:38:45.725Z,2608
2017-03-03T07:39:26.236Z,2664
2017-03-03T07:40:06.774Z,2708
2017-03-03T07:40:47.276Z,2728
2017-03-03T07:41:27.783Z,2752
2017-03-03T07:42:08.330Z,2780
2017-03-03T07:42:48.798Z,2800
2017-03-03T07:43:29.297Z,2812
2017-03-03T07:44:09.801Z,2832
2017-03-03T07:44:50.323Z,2848
2017-03-03T07:45:30.872Z,2880
2017-03-03T07:46:11.353Z,2912
2017-03-03T07:46:51.870Z,2984
2017-03-03T07:47:32.367Z,3064
2017-03-03T07:48:12.883Z,3100
2017-03-03T07:48:53.422Z,3104
2017-03-03T07:49:33.934Z,3136
2017-03-03T07:50:14.396Z,3120
2017-03-03T07:50:55.304Z,3124
2017-03-03T07:51:35.967Z,3092
2017-03-03T07:52:16.487Z,3060
2017-03-03T07:52:56.997Z,3060
2017-03-03T07:53:37.669Z,3128
2017-03-03T07:54:18.140Z,3160
2017-03-03T07:54:58.633Z,3192
2017-03-03T07:55:39.198Z,3236
2017-03-03T07:56:19.812Z,3288
2017-03-03T07:57:00.345Z,3364
2017-03-03T07:57:40.906Z,3448
2017-03-03T07:58:21.479Z,3508
2017-03-03T07:59:01.951Z,3536
2017-03-03T07:59:42.456Z,3516
2017-03-03T08:00:22.932Z,3600
2017-03-03T08:01:03.427Z,3692
2017-03-03T08:01:43.958Z,3712
2017-03-03T08:02:24.456Z,3772
2017-03-03T08:03:04.997Z,3792
2017-03-03T08:03:47.254Z,3828
2017-03-03T08:04:27.852Z,3848
2017-03-03T08:05:08.291Z,3900
2017-03-03T08:05:48.807Z,3996
2017-03-03T08:06:29.420Z,4096
2017-03-03T08:07:09.963Z,4184
2017-03-03T08:07:50.494Z,4236
2017-03-03T08:08:31.004Z,4300
2017-03-03T08:09:13.039Z,4436
2017-03-03T08:09:53.622Z,4500
2017-03-03T08:10:34.483Z,4588
2017-03-03T08:11:15.068Z,4656
2017-03-03T08:11:57.069Z,4756
2017-03-03T08:12:37.529Z,4872
2017-03-03T08:13:18.056Z,4996
2017-03-03T08:13:58.617Z,5084
2017-03-03T08:14:39.194Z,5152
2017-03-03T08:15:20.569Z,5196
2017-03-03T08:16:01.148Z,5208
2017-03-03T08:16:45.632Z,5220
2017-03-03T08:17:26.309Z,5232
2017-03-03T08:18:06.864Z,5276
2017-03-03T08:18:47.420Z,5332
2017-03-03T08:19:27.977Z,5384
2017-03-03T08:20:09.602Z,5440
2017-03-03T08:20:50.080Z,5484
2017-03-03T08:21:30.663Z,5504
2017-03-03T08:22:11.212Z,5524
2017-03-03T08:22:51.719Z,5524
2017-03-03T08:23:34.185Z,5524
2017-03-03T08:25:54.795Z,5592
2017-03-03T08:26:43.795Z,5620
2017-03-03T08:27:33.020Z,5644
2017-03-03T08:28:18.920Z,5692
2017-03-03T08:29:00.049Z,5720
2017-03-03T08:29:40.533Z,5728
2017-03-03T08:30:21.067Z,5720
2017-03-03T08:31:01.605Z,5732
2017-03-03T08:31:42.175Z,5740
2017-03-03T08:32:22.698Z,5728
2017-03-03T08:33:03.272Z,5708
2017-03-03T08:33:43.735Z,5716
2017-03-03T08:34:25.134Z,5760
2017-03-03T08:35:05.651Z,5804
2017-03-03T08:35:46.146Z,5832
2017-03-03T08:36:26.982Z,5892
2017-03-03T08:37:07.555Z,5896
2017-03-03T08:37:48.039Z,5884
2017-03-03T08:38:29.076Z,5888
2017-03-03T08:39:09.604Z,5904
2017-03-03T08:39:50.154Z,5960
2017-03-03T08:40:30.600Z,6032
2017-03-03T08:41:11.108Z,6104
2017-03-03T08:41:51.790Z,6184
2017-03-03T08:42:32.295Z,6248
2017-03-03T08:43:12.764Z,6284
2017-03-03T08:43:55.700Z,6304
2017-03-03T08:44:38.570Z,6348
2017-03-03T08:45:20.427Z,6372
2017-03-03T08:46:03.153Z,6392
2017-03-03T08:46:43.792Z,6416
2017-03-03T08:47:24.227Z,6452
2017-03-03T08:48:04.748Z,6508
2017-03-03T08:48:45.361Z,6556
2017-03-03T08:49:25.905Z,6556
2017-03-03T08:50:06.486Z,6560
2017-03-03T08:50:46.978Z,6576
2017-03-03T08:51:27.482Z,6600
2017-03-03T08:52:08.017Z,6600
2017-03-03T08:52:48.534Z,6640
2017-03-03T08:53:29.531Z,6696
2017-03-03T08:54:10.079Z,6756
2017-03-03T08:54:50.886Z,6784
2017-03-03T08:55:33.727Z,6832
2017-03-03T08:56:17.661Z,6824
2017-03-03T08:56:59.166Z,6900
2017-03-03T08:57:40.760Z,6952
2017-03-03T08:58:21.627Z,6976
2017-03-03T08:59:02.155Z,7008
2017-03-03T08:59:42.697Z,7012
2017-03-03T09:00:23.253Z,7056
2017-03-03T09:01:03.965Z,7100
2017-03-03T09:01:44.595Z,7160
2017-03-03T09:02:25.074Z,7248
2017-03-03T09:03:05.635Z,7304
2017-03-03T09:03:46.184Z,7336
2017-03-03T09:04:26.698Z,7324
2017-03-03T09:05:07.588Z,7304
2017-03-03T09:05:48.184Z,7260
2017-03-03T09:06:28.750Z,7224
2017-03-03T09:07:09.280Z,7232
2017-03-03T09:07:49.863Z,7220
2017-03-03T09:08:30.373Z,7216
2017-03-03T09:09:10.970Z,7224
2017-03-03T09:09:51.458Z,7232
2017-03-03T09:10:32.002Z,7252
2017-03-03T09:11:12.559Z,7284
2017-03-03T09:11:53.141Z,7320
2017-03-03T09:12:33.726Z,7352
2017-03-03T09:13:14.190Z,7392
2017-03-03T09:13:54.804Z,7448
2017-03-03T09:14:35.274Z,7492
2017-03-03T09:15:15.772Z,7488
2017-03-03T09:15:56.311Z,7472
2017-03-03T09:16:36.892Z,7456
2017-03-03T09:17:17.428Z,7460
2017-03-03T09:17:57.971Z,7484
2017-03-03T09:18:38.753Z,7480
2017-03-03T09:19:19.353Z,7436
2017-03-03T09:19:59.815Z,7384
2017-03-03T09:22:34.447Z,7444
2017-03-03T09:23:18.115Z,7476
2017-03-03T09:23:58.686Z,7492
2017-03-03T09:24:39.206Z,7488
2017-03-03T09:25:19.706Z,7512
2017-03-03T09:26:00.251Z,7516
2017-03-03T09:26:40.776Z,7500
2017-03-03T09:27:21.244Z,7492
2017-03-03T09:28:01.772Z,7464
2017-03-03T09:28:42.279Z,7476
2017-03-03T09:29:22.775Z,7472
2017-03-03T09:30:03.402Z,7480
2017-03-03T09:30:43.910Z,7476
2017-03-03T09:31:24.483Z,7480
2017-03-03T09:32:04.961Z,7512
2017-03-03T09:32:45.532Z,7552
2017-03-03T09:33:25.999Z,7600
2017-03-03T09:34:17.101Z,7648
2017-03-03T09:35:09.375Z,7696
2017-03-03T09:36:01.220Z,7708
2017-03-03T09:36:51.401Z,7724
2017-03-03T09:37:31.911Z,7676
2017-03-03T09:40:09.837Z,7792
2017-03-03T09:40:54.280Z,7816
2017-03-03T09:41:35.036Z,7776
2017-03-03T09:42:15.545Z,7788
2017-03-03T09:42:56.266Z,7840
2017-03-03T09:43:36.848Z,7868
2017-03-03T09:44:18.414Z,7880